Time;durP1;ratioP1;P1;durP2;ratioP2;P2;SDS_P1;SDS_P2;PMS_P1;PMS_P2;Temp;Humidity;BMP_temperature;BMP_pressure;BME280_temperature;BME280_humidity;BME280_pressure;Samples;Min_cycle;Max_cycle;Signal;HPM_P1;HPM_P2
2021/07/10 00:00:59;;;;;;;4.60;4.05;;;;;;;24.70;41.70;99705.34;5033097;28;20029;-76
2021/07/10 00:03:24;;;;;;;6.13;4.53;;;;;;;24.58;41.45;99680.47;5033102;28;20030;-76
2021/07/10 00:05:50;;;;;;;8.32;4.53;;;;;;;24.48;41.37;99666.13;5033181;28;20048;-76
2021/07/10 00:08:15;;;;;;;5.70;4.40;;;;;;;24.54;41.65;99684.78;5033345;28;20029;-75
2021/07/10 00:10:41;;;;;;;4.32;3.80;;;;;;;24.30;41.40;99635.84;5033309;28;20445;-76
2021/07/10 00:13:06;;;;;;;5.88;4.13;;;;;;;24.73;41.71;99687.00;5033154;28;20036;-76
2021/07/10 00:15:32;;;;;;;6.75;4.25;;;;;;;24.43;41.44;99650.72;5032758;28;20420;-76
2021/07/10 00:17:57;;;;;;;5.13;3.78;;;;;;;24.70;41.38;99694.53;5032898;28;20022;-77
2021/07/10 00:20:23;;;;;;;7.22;3.83;;;;;;;24.69;41.67;99692.13;5032847;28;20048;-76
2021/07/10 00:22:48;;;;;;;4.72;4.28;;;;;;;24.53;41.65;99663.47;5031702;28;20022;-76
2021/07/10 00:25:17;;;;;;;5.30;4.10;;;;;;;24.61;41.87;99687.22;5032962;28;20494;-76
2021/07/10 00:27:44;;;;;;;5.43;4.20;;;;;;;24.57;41.72;99689.66;5032755;28;20025;-75
2021/07/10 00:30:10;;;;;;;5.82;4.25;;;;;;;24.22;41.85;99646.31;5032830;28;20025;-75
2021/07/10 00:32:36;;;;;;;6.50;4.07;;;;;;;23.75;42.00;99577.88;5031220;28;20036;-77
2021/07/10 00:35:03;;;;;;;6.47;3.88;;;;;;;24.35;41.96;99689.03;5032508;28;20025;-75
2021/07/10 00:37:29;;;;;;;5.53;4.30;;;;;;;23.79;42.25;99625.91;5031276;28;20120;-77
2021/07/10 00:39:54;;;;;;;5.45;4.30;;;;;;;23.85;42.45;99652.63;5032403;28;20032;-76
2021/07/10 00:42:21;;;;;;;5.10;3.88;;;;;;;23.70;42.36;99620.19;5032153;28;20049;-75
2021/07/10 00:44:50;;;;;;;7.00;4.40;;;;;;;24.12;42.32;99689.44;5032575;28;20435;-76
2021/07/10 00:47:17;;;;;;;4.97;4.15;;;;;;;23.94;42.42;99659.16;5032597;28;20032;-76
2021/07/10 00:49:42;;;;;;;5.78;4.18;;;;;;;23.99;42.54;99679.94;5031111;28;20031;-75
2021/07/10 00:52:08;;;;;;;5.18;4.28;;;;;;;23.92;42.61;99685.56;5032555;28;20025;-77
2021/07/10 00:54:33;;;;;;;7.43;4.30;;;;;;;23.52;42.79;99642.16;5032200;28;20061;-76
2021/07/10 00:57:01;;;;;;;5.82;4.57;;;;;;;23.51;42.86;99651.31;5032061;28;20105;-77
2021/07/10 00:59:28;;;;;;;4.55;4.15;;;;;;;23.53;43.22;99682.31;5032140;28;20029;-75
2021/07/10 01:01:54;;;;;;;5.00;4.50;;;;;;;23.50;43.38;99677.44;5032366;28;20030;-76
2021/07/10 01:04:19;;;;;;;5.18;4.10;;;;;;;23.11;43.50;99610.38;5032156;28;20025;-76
2021/07/10 01:06:47;;;;;;;5.07;4.40;;;;;;;23.23;43.31;99622.84;5031247;28;20083;-76
2021/07/10 01:09:12;;;;;;;5.07;4.20;;;;;;;23.56;43.46;99656.75;5030782;28;20452;-76
2021/07/10 01:11:38;;;;;;;5.25;4.03;;;;;;;22.97;43.35;99563.38;5031114;28;20090;-77
2021/07/10 01:14:04;;;;;;;6.45;4.28;;;;;;;23.41;43.50;99638.59;5031990;28;20490;-77
2021/07/10 01:16:30;;;;;;;4.75;3.90;;;;;;;23.51;43.52;99656.69;5031653;28;20029;-77
2021/07/10 01:18:55;;;;;;;5.68;4.00;;;;;;;23.07;43.61;99603.06;5031767;28;20391;-75
2021/07/10 01:21:20;;;;;;;4.75;4.18;;;;;;;23.25;43.86;99640.34;5031975;28;20018;-76
2021/07/10 01:23:48;;;;;;;5.95;4.03;;;;;;;23.03;43.94;99616.19;5031951;28;20021;-77
2021/07/10 01:26:14;;;;;;;5.97;4.40;;;;;;;22.77;44.11;99566.69;5031965;28;20171;-77
2021/07/10 01:28:39;;;;;;;5.47;4.40;;;;;;;23.20;44.08;99634.13;5031946;28;20102;-77
2021/07/10 01:31:05;;;;;;;10.70;4.75;;;;;;;22.95;44.08;99587.06;5031678;28;20025;-76
2021/07/10 01:33:31;;;;;;;9.32;4.28;;;;;;;22.73;44.12;99562.91;5031576;28;20029;-76
2021/07/10 01:35:56;;;;;;;6.72;4.43;;;;;;;23.05;44.16;99615.97;5031389;28;20035;-76
2021/07/10 01:38:22;;;;;;;9.10;4.40;;;;;;;23.06;44.12;99612.22;5030091;28;20497;-77
2021/07/10 01:40:47;;;;;;;5.68;4.30;;;;;;;22.72;44.12;99566.66;5031186;28;20065;-76
2021/07/10 01:43:13;;;;;;;10.30;4.47;;;;;;;23.05;44.30;99616.78;5031198;28;20482;-77
2021/07/10 01:45:39;;;;;;;8.18;4.00;;;;;;;22.60;44.25;99543.66;5031550;28;20021;-76
2021/07/10 01:48:10;;;;;;;6.28;4.32;;;;;;;22.98;44.22;99599.19;5031331;28;20033;-77
2021/07/10 01:50:35;;;;;;;5.28;4.78;;;;;;;23.07;44.27;99617.34;5031352;28;20053;-76
2021/07/10 01:53:01;;;;;;;6.95;4.53;;;;;;;22.73;44.37;99562.09;5031212;28;20506;-78
2021/07/10 01:55:28;;;;;;;8.07;4.30;;;;;;;22.80;44.29;99573.47;5030041;28;20065;-77
2021/07/10 01:57:55;;;;;;;7.40;4.60;;;;;;;22.96;44.45;99610.22;5031254;28;20053;-77
2021/07/10 02:00:23;;;;;;;7.57;4.40;;;;;;;22.89;44.53;99624.97;5031402;28;20021;-76
2021/07/10 02:02:49;;;;;;;7.22;4.70;;;;;;;22.40;44.72;99555.06;5031315;28;20025;-75
2021/07/10 02:05:18;;;;;;;10.73;4.65;;;;;;;22.80;44.62;99617.34;5031484;28;20018;-76
2021/07/10 02:07:45;;;;;;;9.90;4.55;;;;;;;22.48;44.71;99560.00;5031308;28;20030;-77
2021/07/10 02:10:12;;;;;;;10.00;4.75;;;;;;;22.77;44.74;99620.53;5031347;28;20087;-78
2021/07/10 02:12:46;;;;;;;6.95;4.55;;;;;;;22.70;44.93;99622.63;5031321;28;20108;-76
2021/07/10 02:15:12;;;;;;;8.85;4.88;;;;;;;22.64;44.91;99615.56;5031175;28;20025;-77
2021/07/10 02:17:38;;;;;;;5.25;4.75;;;;;;;22.63;45.00;99615.81;5031962;28;20410;-77
2021/07/10 02:20:08;;;;;;;5.88;4.50;;;;;;;22.58;45.36;99615.78;5035097;28;20025;-75
2021/07/10 02:22:34;;;;;;;6.72;4.75;;;;;;;22.52;45.40;99613.03;5035140;28;20406;-76
2021/07/10 02:24:59;;;;;;;6.70;4.40;;;;;;;21.82;45.32;99510.88;5033850;28;20025;-76
2021/07/10 02:27:26;;;;;;;7.18;4.43;;;;;;;21.92;45.36;99529.78;5033826;28;20032;-75
2021/07/10 02:29:52;;;;;;;5.85;4.30;;;;;;;22.38;45.28;99592.19;5035054;28;20017;-76
2021/07/10 02:32:17;;;;;;;4.95;4.00;;;;;;;22.34;45.33;99588.38;5035033;28;20021;-76
2021/07/10 02:34:43;;;;;;;5.40;4.63;;;;;;;22.32;45.30;99590.50;5034906;28;20021;-75
2021/07/10 02:37:08;;;;;;;4.97;4.47;;;;;;;22.38;45.39;99611.81;5034082;28;20026;-75
2021/07/10 02:39:33;;;;;;;5.13;4.45;;;;;;;22.32;45.47;99610.16;5034982;28;20025;-76
2021/07/10 02:41:59;;;;;;;4.55;4.10;;;;;;;22.08;45.63;99588.06;5033239;28;20050;-76
2021/07/10 02:44:24;;;;;;;5.85;4.35;;;;;;;21.88;45.91;99580.56;5034648;28;20108;-76
2021/07/10 02:46:50;;;;;;;4.95;4.35;;;;;;;22.01;45.81;99592.81;5034609;28;20052;-76
2021/07/10 02:49:15;;;;;;;6.15;4.05;;;;;;;22.22;45.88;99611.88;5034516;28;20021;-75
2021/07/10 02:51:41;;;;;;;5.22;4.57;;;;;;;21.93;45.70;99549.41;5033453;28;20025;-76
2021/07/10 02:54:06;;;;;;;6.10;4.32;;;;;;;22.03;45.38;99569.19;5034328;28;20022;-76
2021/07/10 02:56:32;;;;;;;9.90;4.90;;;;;;;22.17;45.72;99600.00;5034530;28;20475;-75
2021/07/10 02:58:57;;;;;;;6.63;4.70;;;;;;;22.24;45.79;99609.75;5034488;28;20405;-75
2021/07/10 03:01:23;;;;;;;6.72;4.38;;;;;;;21.85;45.78;99553.38;5034482;28;20018;-77
2021/07/10 03:03:48;;;;;;;5.85;4.80;;;;;;;21.76;45.67;99539.56;5033072;28;20405;-76
2021/07/10 03:06:14;;;;;;;6.22;4.65;;;;;;;21.92;45.79;99575.50;5033162;28;20018;-75
2021/07/10 03:08:42;;;;;;;5.45;4.78;;;;;;;22.04;45.82;99596.88;5034419;28;20033;-77
2021/07/10 03:11:09;;;;;;;6.40;4.45;;;;;;;22.10;46.00;99612.03;5034263;28;20018;-76
2021/07/10 03:13:34;;;;;;;7.10;4.82;;;;;;;21.85;45.98;99570.31;5032800;28;20041;-77
2021/07/10 03:16:00;;;;;;;4.78;4.38;;;;;;;22.06;45.98;99602.84;5034322;28;20048;-76
2021/07/10 03:18:25;;;;;;;7.05;4.68;;;;;;;21.67;46.07;99548.31;5034064;28;20021;-75
2021/07/10 03:20:50;;;;;;;5.93;4.50;;;;;;;21.92;45.99;99588.94;5034249;28;20024;-75
2021/07/10 03:23:16;;;;;;;5.65;4.70;;;;;;;21.96;46.10;99600.00;5034251;28;20017;-76
2021/07/10 03:25:47;;;;;;;5.47;4.57;;;;;;;21.95;46.37;99611.81;5033929;28;20520;-75
2021/07/10 03:28:12;;;;;;;9.65;4.75;;;;;;;21.69;46.36;99565.81;5033985;28;20017;-75
2021/07/10 03:30:38;;;;;;;8.13;5.05;;;;;;;21.88;46.50;99603.94;5032971;28;20040;-75
2021/07/10 03:33:04;;;;;;;6.70;4.95;;;;;;;21.60;46.44;99558.44;5033841;28;20083;-76
2021/07/10 03:35:30;;;;;;;5.65;4.88;;;;;;;21.79;46.30;99579.38;5033746;28;20021;-76
2021/07/10 03:37:57;;;;;;;7.55;4.88;;;;;;;21.49;46.05;99533.28;5033855;28;20022;-76
2021/07/10 03:40:25;;;;;;;6.43;5.13;;;;;;;21.44;46.37;99525.97;5032570;28;20021;-76
2021/07/10 03:42:50;;;;;;;5.75;4.72;;;;;;;21.42;46.36;99533.47;5033255;28;20132;-76
2021/07/10 03:45:17;;;;;;;7.30;4.80;;;;;;;21.42;46.27;99527.28;5033620;28;20028;-76
2021/07/10 03:47:42;;;;;;;5.93;4.32;;;;;;;21.92;46.51;99604.25;5033763;28;20036;-77
2021/07/10 03:50:10;;;;;;;7.10;4.95;;;;;;;21.55;46.29;99551.09;5033644;28;20029;-77
2021/07/10 03:52:36;;;;;;;10.10;5.78;;;;;;;21.69;46.34;99579.25;5033457;28;20029;-76
2021/07/10 03:55:04;;;;;;;8.15;5.32;;;;;;;21.88;46.44;99612.00;5033385;28;20030;-77
2021/07/10 03:57:30;;;;;;;5.50;5.00;;;;;;;21.53;46.47;99554.03;5033404;28;20512;-76
2021/07/10 03:59:55;;;;;;;6.93;5.05;;;;;;;21.96;46.50;99608.88;5033336;28;20071;-76
2021/07/10 04:02:21;;;;;;;13.25;5.90;;;;;;;22.01;46.24;99611.63;5033495;28;20516;-76
2021/07/10 04:04:47;;;;;;;6.38;5.30;;;;;;;21.76;46.20;99553.00;5033201;28;20490;-77
2021/07/10 04:07:12;;;;;;;11.43;4.63;;;;;;;21.64;46.30;99524.63;5032948;28;20447;-77
2021/07/10 04:09:37;;;;;;;10.20;5.30;;;;;;;21.82;46.42;99561.94;5033042;28;20490;-76
2021/07/10 04:12:03;;;;;;;6.57;5.03;;;;;;;22.09;46.36;99596.94;5033388;28;20118;-76
2021/07/10 04:14:31;;;;;;;5.97;5.18;;;;;;;22.13;46.34;99608.81;5033075;28;20057;-77
2021/07/10 04:16:56;;;;;;;10.07;5.38;;;;;;;22.22;46.36;99617.25;5031951;28;20466;-76
2021/07/10 04:19:22;;;;;;;7.80;5.20;;;;;;;22.06;46.16;99578.63;5031727;28;20126;-76
2021/07/10 04:21:47;;;;;;;5.90;5.10;;;;;;;21.97;46.47;99596.25;5032979;28;20156;-76
2021/07/10 04:24:13;;;;;;;6.05;4.40;;;;;;;22.03;46.80;99620.28;5032977;28;20021;-81
2021/07/10 04:26:38;;;;;;;8.50;4.65;;;;;;;21.95;46.76;99583.06;5031611;28;20486;-80
2021/07/10 04:29:03;;;;;;;8.05;4.65;;;;;;;22.15;46.65;99607.50;5032711;28;20021;-82
2021/07/10 04:31:29;;;;;;;11.77;5.45;;;;;;;21.65;46.75;99502.06;5032723;28;20024;-81
2021/07/10 04:33:54;;;;;;;5.65;4.60;;;;;;;22.29;46.65;99591.78;5033492;28;20021;-82
2021/07/10 04:36:20;;;;;;;9.57;5.07;;;;;;;22.33;46.63;99584.06;5031142;28;20021;-81
2021/07/10 04:38:45;;;;;;;7.38;4.82;;;;;;;22.50;46.42;99595.53;5032320;28;20028;-82
2021/07/10 04:41:11;;;;;;;8.77;4.85;;;;;;;22.32;46.39;99552.84;5032586;28;20043;-81
2021/07/10 04:43:36;;;;;;;7.65;4.65;;;;;;;22.20;46.25;99510.75;5032394;28;20031;-81
2021/07/10 04:46:03;;;;;;;9.13;4.68;;;;;;;22.45;46.09;99536.28;5032627;28;20029;-82
2021/07/10 04:48:28;;;;;;;10.00;5.43;;;;;;;22.58;45.97;99545.81;5032470;28;20021;-81
2021/07/10 04:50:54;;;;;;;7.20;4.63;;;;;;;22.60;45.93;99539.09;5032538;28;20017;-83
2021/07/10 04:53:20;;;;;;;7.95;4.68;;;;;;;23.05;45.78;99589.84;5032173;28;20456;-81
2021/07/10 04:55:45;;;;;;;9.57;5.05;;;;;;;23.08;45.55;99583.13;5032454;28;20052;-81
2021/07/10 04:58:11;;;;;;;8.23;4.30;;;;;;;22.89;45.56;99547.69;5032309;28;20025;-81
2021/07/10 05:00:36;;;;;;;10.10;4.65;;;;;;;22.85;45.54;99533.13;5032249;28;20025;-81
2021/07/10 05:03:02;;;;;;;7.25;4.50;;;;;;;23.28;45.48;99594.03;5031904;28;20469;-81
2021/07/10 05:05:28;;;;;;;7.63;4.32;;;;;;;22.95;45.56;99532.38;5032031;28;20051;-81
2021/07/10 05:07:54;;;;;;;7.10;4.35;;;;;;;23.44;45.52;99587.66;5031929;28;20029;-81
2021/07/10 05:10:19;;;;;;;6.82;4.30;;;;;;;23.52;45.40;99599.03;5032024;28;20034;-82
2021/07/10 05:12:45;;;;;;;4.82;4.07;;;;;;;23.40;45.69;99572.28;5031813;28;20494;-82
2021/07/10 05:15:10;;;;;;;9.77;4.60;;;;;;;23.42;45.68;99557.47;5031943;28;20556;-82
2021/07/10 05:17:36;;;;;;;8.32;4.97;;;;;;;23.02;45.76;99487.19;5030887;28;20025;-83
2021/07/10 05:20:02;;;;;;;9.10;4.90;;;;;;;23.65;45.52;99571.63;5031954;28;20441;-82
2021/07/10 05:22:28;;;;;;;10.20;4.63;;;;;;;23.53;45.32;99535.97;5031914;28;20021;-81
2021/07/10 05:24:54;;;;;;;7.43;4.43;;;;;;;23.38;45.13;99501.69;5031867;28;20075;-74
2021/07/10 05:27:19;;;;;;;7.70;4.10;;;;;;;24.09;44.92;99601.75;5031808;28;20029;-77
2021/07/10 05:29:44;;;;;;;6.13;4.18;;;;;;;24.02;44.85;99579.63;5031694;28;20063;-76
2021/07/10 05:32:10;;;;;;;8.98;5.65;;;;;;;23.94;44.49;99555.88;5030454;28;20632;-76
2021/07/10 05:34:35;;;;;;;6.43;4.32;;;;;;;24.36;44.40;99606.97;5031778;28;20028;-77
2021/07/10 05:37:01;;;;;;;5.65;4.35;;;;;;;24.46;44.21;99614.28;5031417;28;20025;-74
2021/07/10 05:39:26;;;;;;;6.65;4.53;;;;;;;24.36;44.17;99574.59;5031452;28;20156;-75
2021/07/10 05:41:52;;;;;;;6.72;4.65;;;;;;;24.66;44.12;99615.16;5031290;28;20046;-74
2021/07/10 05:44:17;;;;;;;8.38;4.90;;;;;;;24.29;43.81;99544.38;5031426;28;20024;-77
2021/07/10 05:46:43;;;;;;;8.38;5.40;;;;;;;24.45;43.91;99564.09;5031556;28;20053;-78
2021/07/10 05:49:08;;;;;;;5.78;4.63;;;;;;;24.79;43.55;99597.63;5031435;28;20021;-74
2021/07/10 05:51:34;;;;;;;4.93;3.95;;;;;;;24.96;42.59;99610.84;5031349;28;20021;-77
2021/07/10 05:53:59;;;;;;;6.82;3.88;;;;;;;25.02;42.38;99624.09;5029504;28;20453;-74
2021/07/10 05:56:26;;;;;;;7.80;3.75;;;;;;;25.03;42.51;99608.72;5031272;28;20021;-77
2021/07/10 05:58:51;;;;;;;5.72;3.65;;;;;;;24.60;42.08;99548.75;5031143;28;20037;-75
2021/07/10 06:01:17;;;;;;;7.95;4.07;;;;;;;25.11;42.26;99621.69;5031195;28;20025;-75
2021/07/10 06:03:42;;;;;;;8.73;4.50;;;;;;;25.18;42.24;99602.47;5031199;28;20100;-75
2021/07/10 06:06:08;;;;;;;11.95;5.18;;;;;;;25.20;42.33;99593.03;5031151;28;20037;-76
2021/07/10 06:08:33;;;;;;;8.48;4.30;;;;;;;25.21;41.75;99578.41;5030989;28;20705;-77
2021/07/10 06:10:59;;;;;;;6.82;4.50;;;;;;;25.43;41.78;99604.34;5031121;28;20025;-76
2021/07/10 06:13:24;;;;;;;6.53;4.22;;;;;;;25.14;42.20;99558.16;5031168;28;20109;-74
2021/07/10 06:15:50;;;;;;;5.00;4.28;;;;;;;25.46;42.12;99599.22;5031370;28;20486;-75
2021/07/10 06:18:15;;;;;;;9.57;4.53;;;;;;;25.53;41.74;99601.63;5031292;28;20541;-74
2021/07/10 06:20:41;;;;;;;4.90;4.00;;;;;;;25.57;41.72;99600.00;5029843;28;20092;-76
2021/07/10 06:23:07;;;;;;;5.35;4.50;;;;;;;25.68;42.07;99615.13;5031086;28;20070;-77
2021/07/10 06:25:35;;;;;;;5.25;4.15;;;;;;;25.68;42.05;99593.50;5031102;28;20024;-77
2021/07/10 06:28:01;;;;;;;6.70;4.15;;;;;;;25.58;41.99;99564.56;5031180;28;20044;-74
2021/07/10 06:30:26;;;;;;;7.13;4.30;;;;;;;25.64;41.95;99562.66;5031022;28;20510;-78
2021/07/10 06:32:52;;;;;;;6.32;4.07;;;;;;;25.88;41.91;99592.59;5030781;28;20409;-74
2021/07/10 06:35:17;;;;;;;5.45;3.90;;;;;;;26.02;41.76;99600.97;5030891;28;20022;-77
2021/07/10 06:37:43;;;;;;;5.90;3.75;;;;;;;26.13;41.39;99611.44;5030796;28;20190;-74
2021/07/10 06:40:12;;;;;;;4.97;4.15;;;;;;;26.10;41.06;99603.09;5030823;28;20033;-77
2021/07/10 06:42:37;;;;;;;6.97;4.72;;;;;;;26.17;40.36;99609.00;5030898;28;20529;-76
2021/07/10 06:45:06;;;;;;;6.85;4.68;;;;;;;25.96;40.71;99568.47;5031164;28;20100;-76
2021/07/10 06:47:31;;;;;;;6.93;4.55;;;;;;;25.81;40.00;99549.63;5030813;28;20057;-75
2021/07/10 06:49:57;;;;;;;9.57;4.47;;;;;;;26.03;40.05;99572.81;5030672;28;20554;-77
2021/07/10 06:52:23;;;;;;;4.10;3.63;;;;;;;26.35;39.87;99605.66;5029628;28;20022;-73
2021/07/10 06:54:49;;;;;;;5.90;3.53;;;;;;;26.27;39.61;99585.38;5030581;28;20048;-75
2021/07/10 06:57:14;;;;;;;7.03;4.20;;;;;;;26.49;39.62;99603.16;5030654;28;20169;-75
2021/07/10 06:59:40;;;;;;;6.10;3.70;;;;;;;26.20;39.87;99549.69;5029437;28;20422;-76
2021/07/10 07:02:06;;;;;;;6.88;4.07;;;;;;;26.66;39.60;99600.84;5031099;28;20101;-75
2021/07/10 07:04:31;;;;;;;5.63;4.03;;;;;;;26.68;39.84;99587.84;5032647;28;20017;-75
2021/07/10 07:06:56;;;;;;;5.10;4.15;;;;;;;26.60;39.52;99564.06;5038669;28;20463;-76
2021/07/10 07:09:22;;;;;;;6.22;4.13;;;;;;;26.76;39.07;99587.25;5033092;28;20025;-75
2021/07/10 07:11:50;;;;;;;7.03;4.28;;;;;;;26.89;38.96;99600.16;5034304;28;20018;-75
2021/07/10 07:14:15;;;;;;;6.10;4.18;;;;;;;26.76;38.81;99562.06;5034200;28;20021;-76
2021/07/10 07:16:41;;;;;;;6.30;4.20;;;;;;;27.00;39.02;99581.13;5034166;28;20104;-75
2021/07/10 07:19:06;;;;;;;8.88;4.10;;;;;;;27.19;38.35;99601.81;5034002;28;20556;-75
2021/07/10 07:21:32;;;;;;;8.85;4.30;;;;;;;27.17;38.21;99598.56;5032831;28;20026;-77
2021/07/10 07:23:58;;;;;;;5.82;4.03;;;;;;;27.31;38.03;99603.31;5034281;28;20009;-76
2021/07/10 07:26:23;;;;;;;6.20;4.00;;;;;;;26.94;37.54;99539.69;5034102;28;20017;-75
2021/07/10 07:28:49;;;;;;;9.23;4.22;;;;;;;27.00;37.30;99538.56;5033707;28;20429;-77
2021/07/10 07:31:15;;;;;;;9.18;4.28;;;;;;;27.40;37.17;99596.97;5033638;28;20419;-76
2021/07/10 07:33:41;;;;;;;7.68;4.07;;;;;;;27.24;37.65;99573.84;5033520;28;20035;-76
2021/07/10 07:36:08;;;;;;;10.15;4.50;;;;;;;27.51;36.87;99605.84;5033813;28;20494;-75
2021/07/10 07:38:35;;;;;;;6.47;4.03;;;;;;;27.52;36.74;99591.19;5032404;28;20022;-76
2021/07/10 07:41:02;;;;;;;5.35;4.30;;;;;;;27.63;37.17;99608.19;5033427;28;20487;-76
2021/07/10 07:43:27;;;;;;;4.70;3.58;;;;;;;27.58;36.08;99579.19;5033295;28;20026;-76
2021/07/10 07:45:53;;;;;;;6.55;3.45;;;;;;;27.75;35.83;99606.69;5033630;28;20033;-76
2021/07/10 07:48:18;;;;;;;6.50;3.72;;;;;;;27.38;35.45;99539.53;5033374;28;20074;-76
2021/07/10 07:50:44;;;;;;;7.43;3.97;;;;;;;27.83;35.58;99602.53;5032154;28;20032;-77
2021/07/10 07:53:10;;;;;;;5.78;3.83;;;;;;;27.91;35.68;99601.06;5033139;28;20033;-76
2021/07/10 07:55:36;;;;;;;4.05;3.58;;;;;;;28.02;35.72;99597.13;5033545;28;20021;-76
2021/07/10 07:58:03;;;;;;;4.72;3.40;;;;;;;27.87;35.23;99557.41;5032214;28;20101;-76
2021/07/10 08:00:28;;;;;;;6.30;3.65;;;;;;;27.85;35.17;99543.34;5033839;28;20168;-76
2021/07/10 08:02:54;;;;;;;5.75;3.83;;;;;;;27.89;35.44;99543.56;5033338;28;20469;-76
2021/07/10 08:05:20;;;;;;;5.20;3.88;;;;;;;28.06;35.68;99554.72;5033265;28;20516;-74
2021/07/10 08:07:45;;;;;;;12.05;4.03;;;;;;;28.44;35.54;99599.84;5033406;28;20025;-76
2021/07/10 08:10:13;;;;;;;4.40;3.05;;;;;;;27.92;34.91;99499.56;5032016;28;20021;-76
2021/07/10 08:12:39;;;;;;;5.82;3.40;;;;;;;28.51;34.93;99579.66;5033422;28;20480;-76
2021/07/10 08:15:07;;;;;;;8.65;3.72;;;;;;;28.71;35.05;99592.91;5032813;28;20489;-76
2021/07/10 08:17:33;;;;;;;4.05;3.35;;;;;;;28.77;35.11;99592.53;5033044;28;20021;-76
2021/07/10 08:19:58;;;;;;;7.80;3.85;;;;;;;28.82;34.72;99588.91;5041533;28;20029;-74
2021/07/10 08:22:24;;;;;;;5.90;3.38;;;;;;;28.57;34.40;99541.25;5051352;28;20464;-73
2021/07/10 08:24:49;;;;;;;5.28;4.15;;;;;;;28.90;34.48;99577.41;5051132;28;20490;-73
2021/07/10 08:27:15;;;;;;;5.63;3.80;;;;;;;28.82;34.26;99571.81;5051780;28;20536;-76
2021/07/10 08:29:42;;;;;;;4.15;3.50;;;;;;;28.77;34.65;99559.91;5046650;28;20117;-75
2021/07/10 08:32:08;;;;;;;8.85;4.28;;;;;;;29.13;34.46;99600.13;5051716;28;20021;-75
2021/07/10 08:34:33;;;;;;;9.35;4.60;;;;;;;29.21;34.19;99596.72;5032881;28;20031;-74
2021/07/10 08:37:01;;;;;;;6.63;4.05;;;;;;;29.10;33.91;99563.47;5032744;28;20033;-75
2021/07/10 08:39:26;;;;;;;12.25;7.68;;;;;;;29.32;33.53;99587.28;5032226;28;20116;-75
2021/07/10 08:41:51;;;;;;;10.23;6.93;;;;;;;29.32;33.41;99581.03;5032333;28;20041;-73
2021/07/10 08:44:18;;;;;;;11.20;5.95;;;;;;;29.36;33.69;99571.16;5042604;28;20035;-75
2021/07/10 08:46:46;;;;;;;7.45;6.07;;;;;;;29.49;33.44;99580.47;5051842;28;20029;-74
2021/07/10 08:49:15;;;;;;;7.13;5.60;;;;;;;29.44;32.87;99561.50;5052380;28;20021;-75
2021/07/10 08:51:44;;;;;;;7.65;5.07;;;;;;;29.31;32.88;99520.38;5048824;28;20025;-74
2021/07/10 08:54:09;;;;;;;13.85;6.32;;;;;;;29.49;32.68;99531.50;5049295;28;20037;-75
2021/07/10 08:56:35;;;;;;;13.70;9.77;;;;;;;29.41;33.14;99541.94;5048110;28;20116;-75
2021/07/10 08:59:00;;;;;;;11.15;6.45;;;;;;;29.57;32.81;99544.38;5040698;28;20485;-75
2021/07/10 09:01:26;;;;;;;9.00;6.90;;;;;;;29.87;33.26;99565.53;5030999;28;20029;-73
2021/07/10 09:03:51;;;;;;;10.27;6.25;;;;;;;30.07;32.36;99568.97;5048224;28;20021;-76
2021/07/10 09:06:17;;;;;;;9.02;5.22;;;;;;;30.25;32.16;99573.44;5051965;28;20025;-76
2021/07/10 09:08:51;;;;;;;9.63;5.25;;;;;;;30.30;31.97;99570.59;5036252;28;20021;-76
2021/07/10 09:11:17;;;;;;;7.75;4.47;;;;;;;30.17;31.61;99545.03;5032010;28;20032;-76
2021/07/10 09:13:51;;;;;;;11.75;5.68;;;;;;;30.20;31.58;99543.59;5034014;28;20021;-74
2021/07/10 09:16:23;;;;;;;7.88;4.60;;;;;;;30.55;31.33;99569.22;5050242;28;20028;-73
2021/07/10 09:18:49;;;;;;;8.80;5.45;;;;;;;30.49;31.30;99573.19;5033607;28;20033;-73
2021/07/10 09:21:46;;;;;;;6.85;6.07;;;;;;;30.66;31.32;99571.44;5033628;28;20036;-73
2021/07/10 09:24:25;;;;;;;10.70;5.57;;;;;;;30.77;31.38;99566.53;5031495;28;20096;-76
2021/07/10 09:26:56;;;;;;;10.13;6.10;;;;;;;30.74;31.35;99545.34;5031311;28;20025;-76
2021/07/10 09:29:23;;;;;;;;;;;;;;;31.01;31.15;99579.81;5031982;28;20033;-76
2021/07/10 09:31:57;;;;;;;7.25;6.25;;;;;;;31.29;30.41;99569.59;5038772;28;19919;-76
2021/07/10 09:34:39;;;;;;;8.30;4.63;;;;;;;31.55;30.51;99570.50;5043013;28;20049;-74
2021/07/10 09:37:06;;;;;;;5.75;4.88;;;;;;;31.60;29.93;99569.53;5033401;28;20517;-77
2021/07/10 09:39:35;;;;;;;7.82;7.00;;;;;;;31.68;30.00;99565.22;5031439;28;20113;-74
2021/07/10 09:42:02;;;;;;;9.15;6.07;;;;;;;31.83;29.62;99562.06;5043788;28;20114;-76
2021/07/10 09:44:48;;;;;;;8.27;6.05;;;;;;;32.18;28.58;99566.50;5041842;28;20482;-77
2021/07/10 09:47:16;;;;;;;6.38;4.10;;;;;;;32.25;28.77;99557.03;5045146;28;20055;-75
2021/07/10 09:49:43;;;;;;;8.80;7.97;;;;;;;32.13;28.60;99509.28;5040158;28;20125;-73
2021/07/10 09:52:17;;;;;;;9.50;7.47;;;;;;;32.50;28.42;99545.28;5045206;28;20090;-73
2021/07/10 09:54:43;;;;;;;7.10;4.60;;;;;;;32.76;28.17;99557.00;5033600;28;20510;-77
2021/07/10 09:57:17;;;;;;;6.68;4.10;;;;;;;32.95;27.44;99550.41;5047161;28;20029;-77
2021/07/10 09:59:51;;;;;;;9.45;4.78;;;;;;;32.99;27.27;99556.81;5044106;28;20437;-76
2021/07/10 10:02:21;;;;;;;5.70;3.42;;;;;;;32.87;25.76;99521.94;5030801;28;20032;-76
2021/07/10 10:04:47;;;;;;;5.30;4.80;;;;;;;33.06;25.25;99543.44;5033620;28;20033;-76
2021/07/10 10:07:18;;;;;;;6.70;4.07;;;;;;;33.26;24.70;99545.47;5049768;28;20048;-74
2021/07/10 10:09:43;;;;;;;;;;;;;;;33.34;24.91;99543.84;5034974;28;20033;-76
2021/07/10 10:12:12;;;;;;;3.63;3.05;;;;;;;33.56;23.85;99540.06;5037126;28;19909;-74
2021/07/10 10:14:58;;;;;;;7.25;3.17;;;;;;;33.16;22.87;99450.06;5049481;28;20029;-77
2021/07/10 10:17:25;;;;;;;5.32;4.03;;;;;;;33.77;23.05;99538.16;5050869;28;20409;-73
2021/07/10 10:19:52;;;;;;;6.63;5.68;;;;;;;33.89;22.76;99527.31;5050830;28;20025;-73
2021/07/10 10:22:19;;;;;;;6.10;3.42;;;;;;;34.00;22.60;99533.19;5050947;28;20025;-75
2021/07/10 10:24:48;;;;;;;4.13;3.40;;;;;;;34.17;22.93;99519.34;5049810;28;20022;-77
2021/07/10 10:27:14;;;;;;;5.88;3.63;;;;;;;33.97;21.99;99482.59;5051075;28;20028;-80
2021/07/10 10:29:40;;;;;;;6.68;2.75;;;;;;;34.33;21.54;99527.81;5051041;28;20075;-79
2021/07/10 10:32:06;;;;;;;5.40;3.00;;;;;;;34.54;21.67;99522.28;5050971;28;20508;-81
2021/07/10 10:34:34;;;;;;;4.60;3.42;;;;;;;34.82;21.14;99527.97;5050990;28;20024;-80
2021/07/10 10:36:59;;;;;;;12.65;4.05;;;;;;;34.79;21.61;99526.69;5050744;28;20095;-80
2021/07/10 10:39:28;;;;;;;6.90;3.08;;;;;;;34.89;20.75;99515.31;5052748;28;20032;-80
2021/07/10 10:42:00;;;;;;;6.40;3.22;;;;;;;34.95;20.74;99515.94;5053175;28;20040;-78
2021/07/10 10:44:34;;;;;;;4.85;4.35;;;;;;;35.00;20.82;99504.72;5054783;28;20021;-80
2021/07/10 10:46:59;;;;;;;6.03;2.83;;;;;;;35.16;20.62;99502.91;5055830;28;20020;-79
2021/07/10 10:49:35;;;;;;;4.32;3.05;;;;;;;35.30;20.29;99505.31;5054734;28;20464;-80
2021/07/10 10:52:19;;;;;;;6.18;2.70;;;;;;;35.35;19.58;99505.13;5054768;28;20402;-80
2021/07/10 10:54:47;;;;;;;3.58;2.45;;;;;;;35.24;19.43;99487.47;5054248;28;20064;-79
2021/07/10 10:57:12;;;;;;;5.00;2.60;;;;;;;35.03;19.47;99441.72;5054294;28;20111;-78
2021/07/10 10:59:42;;;;;;;7.40;4.43;;;;;;;35.47;19.74;99488.63;5054509;28;20096;-80
2021/07/10 11:02:25;;;;;;;5.75;4.53;;;;;;;35.72;19.88;99491.34;5054442;28;20496;-79
2021/07/10 11:04:55;;;;;;;3.88;2.65;;;;;;;35.85;19.55;99493.75;5054351;28;20053;-80
2021/07/10 11:07:22;;;;;;;4.67;2.73;;;;;;;35.89;19.64;99491.91;5054282;28;20021;-79
2021/07/10 11:10:03;;;;;;;6.50;3.58;;;;;;;36.08;18.55;99488.53;5054238;28;20302;-79
2021/07/10 11:12:49;;;;;;;4.35;2.50;;;;;;;36.14;18.68;99484.38;5054182;28;20021;-79
2021/07/10 11:15:32;;;;;;;3.50;1.98;;;;;;;35.96;17.64;99483.88;5054749;28;20065;-79
2021/07/10 11:18:01;;;;;;;2.63;2.20;;;;;;;35.84;17.26;99491.34;5054308;28;20535;-79
2021/07/10 11:20:41;;;;;;;4.40;2.55;;;;;;;36.08;17.13;99480.28;5054070;28;20036;-80
2021/07/10 11:23:26;;;;;;;;;;;;;;;36.11;17.91;99489.78;5054360;28;20481;-78
2021/07/10 11:25:55;;;;;;;6.47;2.40;;;;;;;36.32;16.94;99484.91;5054157;28;19940;-79
2021/07/10 11:28:47;;;;;;;5.65;2.75;;;;;;;36.52;17.25;99475.66;5054063;28;20485;-79
2021/07/10 11:31:17;;;;;;;2.90;2.47;;;;;;;36.44;16.89;99437.31;5050571;28;20036;-79
2021/07/10 11:34:00;;;;;;;7.03;4.18;;;;;;;37.00;15.41;99473.75;5053849;28;20106;-79